Список аэропортов
Фактическая погода:

21 августа, 07:00
Температура: +19°C (+19.0*)
Ветер: южный 3 м/с
Давление: *766 мм
Без существ. явл.
Время (МСК)Темп. СВетерВлажностьДавлениеОблачностьОсадки
03:00+15ЮВ, 2 м/с94%1022 гПаясно
04:00+14ЮВ, 2 м/с95%1021 гПамалооблачно
05:00+14ЮВ, 2 м/с95%1021 гПаясно
06:00+14ЮВ, 2 м/с93%1021 гПаясно
07:00+15ЮВ, 2 м/с89%1021 гПаясно
08:00+18ЮВ, 2 м/с77%1020 гПаясно
09:00+21ЮВ, 2 м/с64%1020 гПаясно
10:00+24ЮВ, 3 м/с54%1020 гПаясно
11:00+26ЮВ, 3 м/с46%1019 гПаясно
12:00+27ЮВ, 3 м/с42%1019 гПаясно
13:00+29Ю, 4 м/с37%1018 гПаясно
14:00+29Ю, 4 м/с30%1018 гПаясно
15:00+30Ю, 4 м/с28%1017 гПаясно
16:00+29ЮВ, 4 м/с29%1017 гПаясно
17:00+29ЮВ, 4 м/с34%1016 гПаясно
18:00+27ЮВ, 4 м/с43%1016 гПаясно
19:00+25ЮВ, 3 м/с51%1016 гПаясно
20:00+22ЮВ, 3 м/с63%1016 гПаясно
21:00+20В, 2 м/с74%1016 гПаясно
22:00+20В, 2 м/с78%1016 гПамалооблачно
23:00+20ЮВ, 3 м/с78%1016 гПас прояснениями
22 августа
00:00+19ЮВ, 3 м/с79%1016 гПас прояснениями
01:00+19ЮВ, 3 м/с77%1016 гПаоблачно
02:00+19ЮВ, 3 м/с76%1016 гПаоблачно
03:00+19ЮВ, 3 м/с75%1015 гПаоблачно
04:00+19ЮВ, 3 м/с74%1015 гПаоблачно
05:00+18ЮВ, 2 м/с75%1015 гПаоблачно
06:00+17ЮВ, 3 м/с83%1015 гПас прояснениями
07:00+18ЮВ, 3 м/с80%1015 гПаоблачно
08:00+19ЮВ, 3 м/с78%1015 гПаоблачно
09:00+20ЮВ, 3 м/с74%1015 гПаоблачно
10:00+21ЮВ, 3 м/с71%1015 гПаоблачно
11:00+24ЮВ, 4 м/с58%1014 гПаоблачно
12:00+27ЮВ, 4 м/с42%1014 гПаоблачно
13:00+28ЮВ, 5 м/с32%1014 гПаоблачно
14:00+28ЮВ, 5 м/с32%1013 гПаоблачно
15:00+28ЮВ, 5 м/с36%1012 гПаоблачно
16:00+28ЮВ, 5 м/с37%1012 гПаоблачно
17:00+27ЮВ, 5 м/с37%1012 гПаоблачно
18:00+26ЮВ, 4 м/с40%1012 гПаоблачно
19:00+24В, 3 м/с49%1012 гПаоблачно
20:00+21В, 2 м/с59%1011 гПаоблачно
21:00+20В, 2 м/с66%1011 гПаоблачно
22:00+19В, 2 м/с72%1011 гПаоблачно
23:00+18В, 2 м/с75%1010 гПаоблачно
23 августа
00:00+18В, 2 м/с75%1010 гПаоблачно
01:00+17В, 3 м/с76%1009 гПаоблачно
02:00+17ЮВ, 3 м/с75%1009 гПаоблачно
03:00+17ЮВ, 3 м/с76%1008 гПаоблачно